Williams Mountain, West Virginia
Current Conditions -  °F | °C
As of 12:54 PM on Friday 24 Oct 2014 (Local Time) from KCRW Reporting Station
Broken Clouds Broken Clouds  
Wind Chill: 56°   Ceiling: 25000
Heat Index: 56°   Visibility: 10mi
Dew Point: 43°   Wind: 5mph
Humidity: 62%   Direction: 200°SSW
Pressure: 30.11"   Gusts: NA
Location:  38.0789°N, 81.6756°W
Report Text: KCRW 241654Z 20004KT 10SM FEW020 SCT080 BKN250 13/06 A3011 RMK AO2 SLP196 T01330061
Loading
Personal Weather Stations






























Interactive Weather Map
Tropical Storm Tracking
New forecast layout! Learn more

10-Day Weather Forecast

Advertisements
Track Severe Weather on mobile